Time;durP1;ratioP1;P1;durP2;ratioP2;P2;SDS_P1;SDS_P2;PMS_P1;PMS_P2;Temp;Humidity;BMP_temperature;BMP_pressure;BME280_temperature;BME280_humidity;BME280_pressure;Samples;Min_cycle;Max_cycle;Signal;HPM_P1;HPM_P2
2022/06/01 00:01:53;;;;;;;6.35;5.75;;;21.60;83.20;;;;;;6181799;28;89618;-64
2022/06/01 00:04:55;;;;;;;5.97;5.47;;;21.60;83.20;;;;;;6180681;28;89253;-64
2022/06/01 00:07:58;;;;;;;6.20;5.60;;;21.60;83.20;;;;;;6181880;28;89122;-64
2022/06/01 00:11:01;;;;;;;6.32;5.72;;;21.60;83.20;;;;;;6180930;28;88351;-64
2022/06/01 00:14:04;;;;;;;6.60;6.00;;;21.60;83.20;;;;;;6180327;28;88987;-64
2022/06/01 00:17:07;;;;;;;6.80;6.10;;;21.60;83.20;;;;;;6182157;28;89219;-64
2022/06/01 00:20:10;;;;;;;6.38;5.72;;;21.60;83.20;;;;;;6181590;28;90362;-64
2022/06/01 00:23:13;;;;;;;6.50;5.90;;;21.60;83.20;;;;;;6180926;28;89073;-64
2022/06/01 00:26:15;;;;;;;6.80;6.10;;;21.60;83.20;;;;;;6181269;28;88059;-64
2022/06/01 00:29:18;;;;;;;6.68;6.07;;;21.60;83.30;;;;;;6180326;28;89122;-64
2022/06/01 00:32:20;;;;;;;6.65;6.05;;;21.60;83.20;;;;;;6180619;28;89448;-64
2022/06/01 00:35:24;;;;;;;6.45;5.85;;;21.60;83.30;;;;;;6180252;28;89100;-64
2022/06/01 00:38:27;;;;;;;6.57;5.97;;;21.60;83.30;;;;;;6181383;28;89264;-64
2022/06/01 00:41:29;;;;;;;6.80;6.15;;;21.60;83.30;;;;;;6180991;28;88320;-64
2022/06/01 00:44:31;;;;;;;7.45;6.43;;;21.50;84.10;;;;;;6181175;28;89096;-64
2022/06/01 00:47:34;;;;;;;7.25;6.55;;;21.60;83.30;;;;;;6181742;28;89397;-64
2022/06/01 00:50:40;;;;;;;6.70;6.07;;;21.60;83.30;;;;;;6179972;28;90013;-64
2022/06/01 00:53:45;;;;;;;6.95;6.28;;;21.60;83.30;;;;;;6174295;28;89082;-64
2022/06/01 00:56:53;;;;;;;7.07;6.43;;;21.60;83.30;;;;;;6180527;28;89101;-63
2022/06/01 00:59:55;;;;;;;6.70;6.10;;;21.60;83.30;;;;;;6180433;28;89072;-64
2022/06/01 01:02:59;;;;;;;7.55;6.82;;;21.60;83.30;;;;;;6181481;28;89545;-64
2022/06/01 01:06:12;;;;;;;7.35;6.65;;;21.60;83.30;;;;;;6174029;28;89161;-64
2022/06/01 01:09:16;;;;;;;7.20;6.55;;;21.60;83.30;;;;;;6170384;28;89236;-64
2022/06/01 01:12:18;;;;;;;7.13;6.43;;;21.60;83.30;;;;;;6173014;28;88464;-64
2022/06/01 01:15:21;;;;;;;7.70;6.90;;;21.50;83.30;;;;;;6169629;28;89120;-63
2022/06/01 01:18:26;;;;;;;7.18;6.47;;;21.60;83.30;;;;;;6181018;28;90964;-64
2022/06/01 01:21:41;;;;;;;7.35;6.35;;;21.60;83.50;;;;;;6173438;28;90302;-64
2022/06/01 01:24:52;;;;;;;7.03;6.32;;;21.50;83.40;;;;;;6179779;28;89718;-64
2022/06/01 01:27:58;;;;;;;7.20;6.50;;;21.50;83.40;;;;;;6180230;28;89460;-64
2022/06/01 01:31:06;;;;;;;7.30;6.60;;;21.50;83.40;;;;;;6180665;28;89056;-64
2022/06/01 01:34:09;;;;;;;7.70;6.95;;;21.60;83.50;;;;;;6179877;28;87974;-64
2022/06/01 01:37:17;;;;;;;7.70;6.93;;;21.60;83.50;;;;;;6169123;28;89040;-63
2022/06/01 01:40:20;;;;;;;7.70;6.82;;;21.60;83.50;;;;;;6180421;28;89242;-64
2022/06/01 01:43:23;;;;;;;7.18;6.43;;;21.50;83.40;;;;;;6180878;28;87225;-64
2022/06/01 01:46:25;;;;;;;7.28;6.55;;;21.60;83.50;;;;;;6183478;28;89034;-63
2022/06/01 01:49:31;;;;;;;7.30;6.60;;;21.50;83.50;;;;;;6185129;28;89100;-64
2022/06/01 01:52:33;;;;;;;8.63;6.57;;;21.50;83.50;;;;;;6183906;28;91364;-64
2022/06/01 01:55:44;;;;;;;8.40;7.03;;;21.50;83.50;;;;;;6176903;28;89076;-64
2022/06/01 01:59:16;;;;;;;7.60;6.57;;;21.50;83.50;;;;;;6183707;28;87997;-64
2022/06/01 02:02:26;;;;;;;7.63;6.93;;;21.50;83.50;;;;;;6168958;28;87125;-63
2022/06/01 02:08:56;;;;;;;7.05;6.35;;;21.50;83.50;;;;;;6184419;28;87089;-64
2022/06/01 02:15:26;;;;;;;7.85;7.05;;;21.60;83.50;;;;;;6182702;28;86415;-64
2022/06/01 02:18:32;;;;;;;7.00;6.30;;;21.50;83.50;;;;;;6182969;28;89640;-63
2022/06/01 02:21:35;;;;;;;7.45;6.75;;;21.60;83.60;;;;;;6183486;28;89129;-64
2022/06/01 02:24:37;;;;;;;6.80;6.10;;;21.50;83.50;;;;;;6184396;28;89996;-64
2022/06/01 02:27:40;;;;;;;7.32;6.63;;;21.50;83.40;;;;;;6183593;28;87956;-63
2022/06/01 02:30:45;;;;;;;6.97;6.38;;;21.50;83.40;;;;;;6173098;28;88054;-63
2022/06/01 02:33:49;;;;;;;7.05;6.35;;;21.50;83.40;;;;;;6183488;28;89157;-64
2022/06/01 02:36:52;;;;;;;9.48;6.85;;;21.50;83.40;;;;;;6182248;28;87973;-64
2022/06/01 02:39:56;;;;;;;6.80;6.10;;;21.60;84.40;;;;;;6181934;28;90635;-65
2022/06/01 02:42:59;;;;;;;6.85;6.25;;;21.60;83.50;;;;;;6184881;28;89119;-64
2022/06/01 02:46:02;;;;;;;7.00;6.32;;;21.60;83.40;;;;;;6183249;28;89420;-64
2022/06/01 02:49:05;;;;;;;6.70;6.10;;;21.60;83.50;;;;;;6182438;28;89179;-64
2022/06/01 02:52:07;;;;;;;6.82;6.13;;;21.60;83.50;;;;;;6183517;28;89165;-64
2022/06/01 02:55:10;;;;;;;7.00;6.22;;;21.50;83.30;;;;;;6180884;28;88968;-64
2022/06/01 02:58:13;;;;;;;7.38;6.68;;;21.50;83.50;;;;;;6183329;28;87884;-64
2022/06/01 03:01:16;;;;;;;6.63;6.03;;;21.60;83.50;;;;;;6181868;28;89082;-64
2022/06/01 03:04:18;;;;;;;6.60;6.00;;;21.60;83.40;;;;;;6184241;28;89978;-64
2022/06/01 03:07:20;;;;;;;7.05;6.35;;;21.60;83.40;;;;;;6180401;28;89229;-64
2022/06/01 03:10:23;;;;;;;7.03;6.35;;;21.50;83.30;;;;;;6182979;28;89174;-64
2022/06/01 03:13:25;;;;;;;5.97;5.38;;;21.60;83.40;;;;;;6183108;28;89092;-63
2022/06/01 03:16:29;;;;;;;6.60;6.00;;;21.60;83.40;;;;;;6171492;28;88470;-63
2022/06/01 03:19:31;;;;;;;6.53;5.93;;;21.60;83.40;;;;;;6183655;28;87725;-64
2022/06/01 03:22:33;;;;;;;6.78;6.07;;;21.60;83.30;;;;;;6181637;28;89843;-63
2022/06/01 03:25:36;;;;;;;6.88;6.25;;;21.50;83.30;;;;;;6182387;28;90469;-63
2022/06/01 03:28:39;;;;;;;6.90;6.20;;;21.60;83.40;;;;;;6182687;28;89018;-63
2022/06/01 03:31:42;;;;;;;6.47;5.88;;;21.60;83.50;;;;;;6182888;28;89382;-64
2022/06/01 03:34:44;;;;;;;6.18;5.60;;;21.50;83.30;;;;;;6182504;28;89431;-63
2022/06/01 03:37:47;;;;;;;6.18;5.60;;;21.50;83.30;;;;;;6180686;28;89047;-64
2022/06/01 03:40:49;;;;;;;5.85;5.35;;;21.60;83.50;;;;;;6181424;28;88975;-64
2022/06/01 03:47:12;;;;;;;6.32;5.72;;;21.50;83.40;;;;;;6182978;28;87907;-64
2022/06/01 03:50:16;;;;;;;6.25;5.65;;;21.50;83.50;;;;;;6182467;28;89424;-64
2022/06/01 03:53:19;;;;;;;5.45;4.95;;;21.50;83.40;;;;;;6181630;28;89436;-64
2022/06/01 03:56:22;;;;;;;6.00;5.50;;;21.50;83.50;;;;;;6181362;28;90011;-64
2022/06/01 03:59:24;;;;;;;5.93;5.13;;;21.50;83.50;;;;;;6181100;28;88892;-64
2022/06/01 04:02:28;;;;;;;5.70;5.20;;;21.50;83.50;;;;;;6182243;28;89117;-63
2022/06/01 04:05:30;;;;;;;6.10;5.50;;;21.50;83.50;;;;;;6182149;28;89053;-64
2022/06/01 04:08:32;;;;;;;5.57;5.07;;;21.50;83.50;;;;;;6181128;28;89069;-64
2022/06/01 04:11:34;;;;;;;5.70;5.20;;;21.50;83.50;;;;;;6177154;28;88506;-64
2022/06/01 04:14:36;;;;;;;5.70;5.20;;;21.50;83.50;;;;;;6178908;28;89051;-64
2022/06/01 04:17:40;;;;;;;5.40;4.90;;;21.50;83.50;;;;;;6182086;28;88669;-64
2022/06/01 04:20:42;;;;;;;5.82;5.30;;;21.50;83.50;;;;;;6170842;28;87938;-64
2022/06/01 04:23:44;;;;;;;5.40;4.93;;;21.50;83.40;;;;;;6182217;28;89239;-64
2022/06/01 04:26:46;;;;;;;5.88;5.28;;;21.50;83.50;;;;;;6177108;28;90510;-64
2022/06/01 04:29:48;;;;;;;5.13;4.68;;;21.50;83.40;;;;;;6180419;28;90002;-63
2022/06/01 04:32:53;;;;;;;5.47;4.97;;;21.50;83.50;;;;;;6180708;28;89563;-64
2022/06/01 04:35:55;;;;;;;5.63;5.03;;;21.50;83.40;;;;;;6179871;28;89321;-64
2022/06/01 04:38:57;;;;;;;5.25;4.75;;;21.50;83.40;;;;;;6179992;28;89446;-64
2022/06/01 04:41:59;;;;;;;5.25;4.75;;;21.50;83.40;;;;;;6181019;28;87955;-64
2022/06/01 04:45:01;;;;;;;5.30;4.80;;;21.50;83.40;;;;;;6180288;28;87932;-64
2022/06/01 04:48:05;;;;;;;5.80;5.15;;;21.50;83.50;;;;;;6181029;28;88389;-64
2022/06/01 04:51:07;;;;;;;5.63;5.13;;;21.50;83.40;;;;;;6180575;28;89089;-64
2022/06/01 04:54:09;;;;;;;5.40;4.90;;;21.50;83.40;;;;;;6180084;28;87973;-64
2022/06/01 04:57:11;;;;;;;5.72;5.07;;;21.50;83.50;;;;;;6180028;28;90021;-64
2022/06/01 05:00:15;;;;;;;5.40;4.90;;;21.50;83.40;;;;;;6180676;28;89195;-64
2022/06/01 05:03:18;;;;;;;5.32;4.82;;;21.50;83.50;;;;;;6182119;28;88886;-64
2022/06/01 05:06:20;;;;;;;4.97;4.47;;;21.60;83.50;;;;;;6180708;28;89160;-65
2022/06/01 05:09:22;;;;;;;5.45;4.95;;;21.50;83.50;;;;;;6178907;28;87955;-64
2022/06/01 05:12:24;;;;;;;5.25;4.82;;;21.50;83.50;;;;;;6180655;28;89010;-64
2022/06/01 05:15:26;;;;;;;4.82;4.38;;;21.60;83.50;;;;;;6180425;28;89405;-64
2022/06/01 05:18:30;;;;;;;5.63;5.03;;;21.60;83.50;;;;;;6179769;28;88701;-64
2022/06/01 05:21:33;;;;;;;5.60;5.00;;;21.60;83.40;;;;;;6179412;28;89416;-64
2022/06/01 05:24:35;;;;;;;5.40;4.90;;;21.60;83.40;;;;;;6181305;28;89072;-64
2022/06/01 05:27:37;;;;;;;4.68;4.28;;;21.60;83.30;;;;;;6178281;28;92453;-64
2022/06/01 05:30:39;;;;;;;5.18;4.70;;;21.70;83.20;;;;;;6168716;28;89362;-64
2022/06/01 05:33:44;;;;;;;5.38;4.88;;;21.70;83.30;;;;;;6178105;28;89007;-64
2022/06/01 05:36:46;;;;;;;5.20;4.70;;;21.70;83.20;;;;;;6179687;28;89093;-64
2022/06/01 05:39:48;;;;;;;4.78;4.38;;;21.70;83.20;;;;;;6179527;28;89124;-64
2022/06/01 05:42:50;;;;;;;4.95;4.45;;;21.70;83.20;;;;;;6180027;28;89425;-64
2022/06/01 05:45:53;;;;;;;5.70;5.13;;;21.80;83.70;;;;;;6179963;28;89083;-64
2022/06/01 05:48:56;;;;;;;4.88;4.47;;;21.70;83.20;;;;;;6181154;28;88778;-64
2022/06/01 05:51:59;;;;;;;4.93;4.53;;;21.70;83.20;;;;;;6180790;28;89106;-64
2022/06/01 05:55:00;;;;;;;4.95;4.55;;;21.80;83.20;;;;;;6179902;28;89061;-64
2022/06/01 05:58:03;;;;;;;5.10;4.60;;;21.70;83.20;;;;;;6178486;28;90117;-64
2022/06/01 06:01:08;;;;;;;5.35;4.75;;;21.80;83.30;;;;;;6180641;28;89407;-64
2022/06/01 06:04:11;;;;;;;4.80;4.40;;;21.80;83.30;;;;;;6179717;28;89069;-64
2022/06/01 06:07:13;;;;;;;5.13;4.63;;;21.80;83.30;;;;;;6179954;28;89138;-64
2022/06/01 06:10:15;;;;;;;4.97;4.47;;;21.80;83.30;;;;;;6179545;28;89176;-64
2022/06/01 06:13:18;;;;;;;5.00;4.50;;;21.70;83.30;;;;;;6180042;28;89077;-64
2022/06/01 06:16:20;;;;;;;5.05;4.40;;;21.80;83.30;;;;;;6180529;28;87678;-64
2022/06/01 06:19:24;;;;;;;4.80;4.38;;;21.80;84.20;;;;;;6180584;28;88293;-64
2022/06/01 06:22:26;;;;;;;5.07;4.57;;;21.80;83.30;;;;;;6178789;28;89127;-64
2022/06/01 06:25:28;;;;;;;4.95;4.55;;;21.80;83.30;;;;;;6179546;28;89146;-64
2022/06/01 06:28:30;;;;;;;4.60;4.20;;;21.80;83.40;;;;;;6179061;28;90013;-63
2022/06/01 06:31:32;;;;;;;4.85;4.45;;;21.80;83.30;;;;;;6181326;28;89154;-64
2022/06/01 06:34:36;;;;;;;6.28;4.53;;;21.80;83.30;;;;;;6181689;28;89864;-64
2022/06/01 06:37:38;;;;;;;5.05;4.55;;;21.80;83.30;;;;;;6183824;28;88306;-63
2022/06/01 06:40:40;;;;;;;5.07;4.57;;;21.80;83.40;;;;;;6183811;28;88267;-64
2022/06/01 06:43:43;;;;;;;4.80;4.30;;;21.80;83.50;;;;;;6182037;28;87940;-64
2022/06/01 06:46:45;;;;;;;4.57;4.18;;;21.80;83.50;;;;;;6183051;28;89021;-64
2022/06/01 06:49:48;;;;;;;4.90;4.40;;;21.80;83.50;;;;;;6184022;28;89482;-63
2022/06/01 06:52:50;;;;;;;5.30;4.80;;;21.90;83.50;;;;;;6182913;28;88987;-64
2022/06/01 06:55:53;;;;;;;4.90;4.40;;;21.90;83.60;;;;;;6183621;28;89088;-64
2022/06/01 06:58:55;;;;;;;4.68;4.28;;;21.90;83.60;;;;;;6181779;28;90036;-64
2022/06/01 07:01:57;;;;;;;4.50;4.10;;;21.90;83.60;;;;;;6182785;28;90612;-64
2022/06/01 07:05:00;;;;;;;5.00;4.50;;;21.90;83.70;;;;;;6182803;28;89901;-64
2022/06/01 07:08:05;;;;;;;4.63;4.22;;;21.90;83.70;;;;;;6181905;28;89654;-64
2022/06/01 07:11:08;;;;;;;5.10;4.60;;;21.90;83.70;;;;;;6183028;28;89039;-64
2022/06/01 07:14:10;;;;;;;4.70;4.15;;;21.90;83.70;;;;;;6182749;28;87959;-64
2022/06/01 07:17:12;;;;;;;4.53;4.13;;;21.90;83.80;;;;;;6183268;28;89016;-63
2022/06/01 07:20:15;;;;;;;4.60;4.20;;;21.90;83.70;;;;;;6182190;28;87239;-64
2022/06/01 07:23:17;;;;;;;4.60;4.20;;;22.00;83.70;;;;;;6181639;28;89228;-64
2022/06/01 07:26:21;;;;;;;4.43;4.03;;;21.90;83.70;;;;;;6181817;28;89094;-64
2022/06/01 07:29:23;;;;;;;4.70;4.30;;;21.90;83.70;;;;;;6170579;28;90809;-63
2022/06/01 07:32:25;;;;;;;4.57;4.18;;;21.90;83.70;;;;;;6182849;28;92935;-64
2022/06/01 07:35:29;;;;;;;4.35;3.95;;;21.90;83.70;;;;;;6180168;28;90278;-64
2022/06/01 07:45:12;;;;;;;4.28;3.88;;;21.90;83.60;;;;;;6160340;28;87514;-64
2022/06/01 07:48:14;;;;;;;4.50;4.10;;;21.90;83.70;;;;;;6179748;28;87976;-65
2022/06/01 07:51:18;;;;;;;4.53;4.05;;;21.90;83.70;;;;;;6182579;28;88663;-64
2022/06/01 07:54:20;;;;;;;4.78;4.28;;;21.90;83.80;;;;;;6181209;28;89574;-65
2022/06/01 07:57:22;;;;;;;4.38;3.88;;;21.90;83.90;;;;;;6182109;28;89110;-64
2022/06/01 08:00:25;;;;;;;4.30;3.90;;;21.90;83.90;;;;;;6181558;28;90080;-64
2022/06/01 08:03:27;;;;;;;3.90;3.60;;;21.90;84.00;;;;;;6180018;28;87879;-64
2022/06/01 08:06:31;;;;;;;4.47;4.07;;;21.80;83.80;;;;;;6181266;28;89021;-64
2022/06/01 08:09:33;;;;;;;4.90;4.35;;;21.80;83.90;;;;;;6181049;28;89024;-64
2022/06/01 08:15:55;;;;;;;3.83;3.50;;;21.80;84.00;;;;;;6174606;28;87180;-64
2022/06/01 08:18:57;;;;;;;4.22;3.63;;;21.80;84.00;;;;;;6180191;28;89186;-64
2022/06/01 08:22:00;;;;;;;4.13;3.70;;;21.80;84.20;;;;;;6181309;28;88753;-64
2022/06/01 08:25:02;;;;;;;3.95;3.55;;;21.90;84.20;;;;;;6181886;28;89104;-64
2022/06/01 08:28:06;;;;;;;4.40;3.83;;;21.80;84.30;;;;;;6179600;28;87993;-64
2022/06/01 08:31:08;;;;;;;4.00;3.63;;;21.80;84.40;;;;;;6179864;28;88870;-64
2022/06/01 08:34:15;;;;;;;3.95;3.58;;;21.80;84.40;;;;;;6180710;28;89582;-64
2022/06/01 08:37:18;;;;;;;3.90;3.50;;;21.80;84.40;;;;;;6181211;28;89047;-64
2022/06/01 08:40:24;;;;;;;4.30;3.60;;;21.80;84.30;;;;;;6179775;28;91317;-64
2022/06/01 08:43:30;;;;;;;3.97;3.60;;;21.90;84.40;;;;;;6180968;28;89153;-64
2022/06/01 08:46:34;;;;;;;3.78;3.47;;;21.80;84.40;;;;;;6180379;28;90252;-64
2022/06/01 08:49:38;;;;;;;3.92;3.60;;;21.90;84.40;;;;;;6181235;28;89147;-64
2022/06/01 08:52:42;;;;;;;6.28;4.20;;;21.90;84.40;;;;;;6180282;28;90723;-64
2022/06/01 08:55:49;;;;;;;4.30;3.70;;;21.90;84.40;;;;;;6181302;28;89135;-64
2022/06/01 08:59:10;;;;;;;3.63;3.33;;;21.90;84.40;;;;;;6180825;28;89080;-64
2022/06/01 09:02:28;;;;;;;4.55;3.75;;;21.90;84.40;;;;;;6178158;28;90055;-64
2022/06/01 09:05:38;;;;;;;5.40;4.10;;;21.90;84.40;;;;;;6171030;28;89054;-65
2022/06/01 09:08:48;;;;;;;4.45;3.80;;;21.90;84.40;;;;;;6180026;28;89093;-64
2022/06/01 09:11:50;;;;;;;3.58;3.28;;;21.90;84.30;;;;;;6181022;28;89162;-64
2022/06/01 09:14:57;;;;;;;3.80;3.40;;;21.90;84.20;;;;;;6181055;28;87986;-64
2022/06/01 09:18:01;;;;;;;3.75;3.45;;;21.90;84.30;;;;;;6168751;28;89252;-64
2022/06/01 09:24:28;;;;;;;3.65;3.35;;;21.90;84.30;;;;;;6181274;28;86513;-64
2022/06/01 09:27:36;;;;;;;3.58;3.28;;;21.90;84.20;;;;;;6179760;28;89134;-64
2022/06/01 09:30:41;;;;;;;3.85;3.50;;;21.90;84.20;;;;;;6180750;28;88125;-64
2022/06/01 09:33:43;;;;;;;3.17;2.88;;;21.90;84.20;;;;;;6179919;28;90461;-64
2022/06/01 09:37:02;;;;;;;3.53;3.22;;;21.90;84.20;;;;;;6179323;28;89091;-64
2022/06/01 09:40:21;;;;;;;3.38;3.08;;;21.90;84.40;;;;;;6178845;28;89023;-64
2022/06/01 09:43:25;;;;;;;3.42;3.13;;;21.90;84.20;;;;;;6179975;28;89164;-64
2022/06/01 09:46:33;;;;;;;3.58;3.28;;;21.90;84.20;;;;;;6179744;28;89188;-64
2022/06/01 09:49:42;;;;;;;3.33;3.03;;;21.90;84.30;;;;;;6179713;28;88982;-64
2022/06/01 09:52:44;;;;;;;3.30;3.00;;;21.90;84.30;;;;;;6178859;28;89030;-64
2022/06/01 09:55:57;;;;;;;4.00;3.60;;;21.90;84.30;;;;;;6179970;28;88494;-64
2022/06/01 10:09:11;;;;;;;3.40;3.10;;;21.90;84.50;;;;;;6183590;28;88255;-64
2022/06/01 10:12:30;;;;;;;3.40;3.10;;;21.90;84.50;;;;;;6183546;28;88062;-64
2022/06/01 10:15:36;;;;;;;3.33;3.03;;;21.90;84.50;;;;;;6184659;28;89972;-64
2022/06/01 10:18:42;;;;;;;3.42;3.10;;;21.90;84.50;;;;;;6182553;28;89116;-64
2022/06/01 10:21:52;;;;;;;3.88;3.40;;;21.90;84.50;;;;;;6182337;28;89065;-64
2022/06/01 10:24:57;;;;;;;3.65;3.15;;;21.90;84.50;;;;;;6184110;28;89249;-64
2022/06/01 10:28:06;;;;;;;3.55;2.92;;;21.90;84.50;;;;;;6183469;28;88350;-64
2022/06/01 10:31:23;;;;;;;2.97;2.78;;;21.90;85.40;;;;;;6183872;28;88124;-64
2022/06/01 10:34:31;;;;;;;3.13;2.83;;;21.80;84.50;;;;;;6183149;28;89485;-64
2022/06/01 10:37:38;;;;;;;3.05;2.75;;;21.90;84.50;;;;;;6182127;28;90383;-64
2022/06/01 10:40:45;;;;;;;3.03;2.83;;;21.80;84.50;;;;;;6179137;28;89075;-64
2022/06/01 10:43:54;;;;;;;2.90;2.70;;;21.90;84.50;;;;;;6184120;28;91770;-64
2022/06/01 10:47:02;;;;;;;3.17;2.88;;;21.90;84.50;;;;;;6182290;28;89163;-64
2022/06/01 10:50:12;;;;;;;3.40;3.10;;;21.90;84.40;;;;;;6182751;28;89034;-64
2022/06/01 10:53:22;;;;;;;3.00;2.70;;;21.90;84.40;;;;;;6183237;28;87932;-64
2022/06/01 10:56:24;;;;;;;3.35;2.80;;;21.90;84.40;;;;;;6181982;28;89248;-64
2022/06/01 10:59:28;;;;;;;2.88;2.67;;;21.90;84.40;;;;;;6183148;28;88747;-64
2022/06/01 11:03:00;;;;;;;2.92;2.70;;;21.90;84.40;;;;;;6182918;28;90253;-64
2022/06/01 11:06:28;;;;;;;2.90;2.60;;;21.90;84.30;;;;;;6178458;28;89175;-64
2022/06/01 11:09:37;;;;;;;3.25;2.88;;;21.90;84.30;;;;;;6180572;28;90031;-64
2022/06/01 11:12:53;;;;;;;2.90;2.70;;;21.90;84.30;;;;;;6182975;28;89243;-64
2022/06/01 11:16:08;;;;;;;3.10;2.80;;;21.90;84.30;;;;;;6176636;28;89559;-64
2022/06/01 11:19:26;;;;;;;2.75;2.55;;;21.90;84.30;;;;;;6181090;28;89073;-65
2022/06/01 11:22:46;;;;;;;2.95;2.60;;;21.90;84.20;;;;;;6182350;28;89175;-64
2022/06/01 11:25:55;;;;;;;2.85;2.55;;;21.90;84.20;;;;;;6182276;28;88999;-64
2022/06/01 11:29:14;;;;;;;2.83;2.63;;;21.90;84.20;;;;;;6183478;28;89269;-64
2022/06/01 11:32:22;;;;;;;2.60;2.40;;;21.90;84.20;;;;;;6182805;28;88217;-64
2022/06/01 11:35:33;;;;;;;2.53;2.33;;;22.00;84.30;;;;;;6181369;28;89207;-64
2022/06/01 11:38:40;;;;;;;2.70;2.50;;;22.00;84.20;;;;;;6180483;28;89497;-64
2022/06/01 11:41:53;;;;;;;3.10;2.80;;;22.00;84.20;;;;;;6181579;28;89279;-64
2022/06/01 11:45:01;;;;;;;3.42;2.60;;;22.00;84.30;;;;;;6181493;28;88996;-64
2022/06/01 11:48:08;;;;;;;2.50;2.30;;;22.00;84.30;;;;;;6180955;28;89170;-64
2022/06/01 11:51:15;;;;;;;2.75;2.53;;;21.90;84.30;;;;;;6181671;28;89062;-64
2022/06/01 11:54:30;;;;;;;3.20;2.90;;;21.90;84.30;;;;;;6181444;28;89047;-64
2022/06/01 11:57:41;;;;;;;2.60;2.40;;;21.90;84.30;;;;;;6182287;28;89430;-64
2022/06/01 12:00:51;;;;;;;3.28;2.50;;;22.00;84.40;;;;;;6180661;28;89079;-64
2022/06/01 12:04:09;;;;;;;2.50;2.30;;;21.90;84.30;;;;;;6183233;28;87421;-64
2022/06/01 12:07:14;;;;;;;2.53;2.33;;;21.90;84.40;;;;;;6180953;28;88972;-64
2022/06/01 12:10:29;;;;;;;2.72;2.42;;;21.90;84.40;;;;;;6181038;28;89591;-64
2022/06/01 12:13:50;;;;;;;2.75;2.55;;;21.90;84.40;;;;;;6179156;28;90064;-64
2022/06/01 12:17:40;;;;;;;3.03;2.53;;;21.90;84.40;;;;;;6180593;28;89370;-64
2022/06/01 12:20:55;;;;;;;2.58;2.38;;;21.90;84.40;;;;;;6080322;28;89131;-64
2022/06/01 12:30:50;;;;;;;2.50;2.30;;;21.90;84.40;;;;;;6178260;28;87206;-64
2022/06/01 12:34:05;;;;;;;2.40;2.20;;;21.90;84.40;;;;;;6180763;28;89299;-64
2022/06/01 12:37:14;;;;;;;2.42;2.20;;;21.90;84.40;;;;;;6180368;28;87255;-64
2022/06/01 12:40:21;;;;;;;2.30;2.10;;;21.90;85.30;;;;;;6180465;28;88853;-64
2022/06/01 12:43:23;;;;;;;2.40;2.20;;;21.90;84.40;;;;;;6180963;28;89012;-64
2022/06/01 12:46:28;;;;;;;2.85;2.55;;;22.00;84.50;;;;;;6179829;28;90098;-64
2022/06/01 12:49:33;;;;;;;2.55;2.35;;;21.90;84.40;;;;;;6180785;28;89208;-64
2022/06/01 12:52:37;;;;;;;2.40;2.20;;;22.00;84.40;;;;;;6182000;28;89082;-65
2022/06/01 12:55:39;;;;;;;2.85;2.50;;;22.00;84.30;;;;;;6180727;28;89306;-64
2022/06/01 12:58:41;;;;;;;2.38;2.17;;;22.00;84.30;;;;;;6178732;28;89189;-64
2022/06/01 13:01:43;;;;;;;2.83;2.30;;;22.00;84.30;;;;;;6180151;28;88994;-64
2022/06/01 13:04:53;;;;;;;2.40;2.20;;;22.00;84.20;;;;;;6179569;28;89315;-64
2022/06/01 13:08:00;;;;;;;2.88;2.13;;;22.00;84.20;;;;;;6180103;28;87333;-64
2022/06/01 13:11:19;;;;;;;2.78;2.58;;;22.00;84.20;;;;;;6180315;28;89258;-65
2022/06/01 13:14:24;;;;;;;2.78;2.40;;;22.00;84.20;;;;;;6174343;28;89064;-64
2022/06/01 13:17:26;;;;;;;2.60;2.40;;;22.00;84.20;;;;;;6176227;28;90023;-65
2022/06/01 13:20:36;;;;;;;2.40;2.20;;;22.00;84.20;;;;;;6179308;28;89155;-65
2022/06/01 13:23:51;;;;;;;2.63;2.42;;;22.00;84.20;;;;;;6180523;28;89037;-64
2022/06/01 13:26:55;;;;;;;2.40;2.20;;;22.00;84.20;;;;;;6180586;28;88946;-65
2022/06/01 13:30:00;;;;;;;2.38;2.17;;;22.00;84.20;;;;;;6180911;28;89173;-64
2022/06/01 13:33:16;;;;;;;2.47;2.28;;;22.00;84.20;;;;;;6179320;28;88867;-65
2022/06/01 13:36:29;;;;;;;2.30;2.10;;;22.00;84.20;;;;;;6179146;28;88247;-64
2022/06/01 13:39:36;;;;;;;2.60;2.30;;;22.00;84.20;;;;;;6180645;28;88318;-64
2022/06/01 13:42:47;;;;;;;2.70;2.50;;;22.00;84.20;;;;;;6184515;28;88966;-64
2022/06/01 13:45:53;;;;;;;2.42;2.22;;;22.00;84.10;;;;;;6184882;28;89066;-64
2022/06/01 13:48:56;;;;;;;2.03;1.92;;;22.00;84.20;;;;;;6184537;28;90138;-65
2022/06/01 13:52:01;;;;;;;2.50;2.30;;;22.00;84.20;;;;;;6184984;28;89116;-65
2022/06/01 13:55:18;;;;;;;2.40;2.20;;;22.00;84.20;;;;;;6183759;28;88240;-64
2022/06/01 13:58:34;;;;;;;2.17;1.98;;;22.00;84.20;;;;;;6183535;28;89090;-64
2022/06/01 14:01:40;;;;;;;2.40;2.20;;;22.00;84.20;;;;;;6183609;28;88312;-64
2022/06/01 14:04:44;;;;;;;2.60;2.40;;;22.00;84.20;;;;;;6184087;28;88269;-64
2022/06/01 14:07:50;;;;;;;2.50;2.30;;;22.00;84.30;;;;;;6182861;28;87872;-65
2022/06/01 14:10:55;;;;;;;2.67;2.47;;;22.00;84.40;;;;;;6182131;28;88410;-65
2022/06/01 14:14:02;;;;;;;2.53;2.33;;;22.00;84.40;;;;;;6184959;28;89524;-65
2022/06/01 14:17:09;;;;;;;2.80;2.60;;;22.00;84.40;;;;;;6183881;28;89347;-65
2022/06/01 14:20:12;;;;;;;2.58;2.38;;;22.00;84.40;;;;;;6183850;28;89987;-65
2022/06/01 14:23:14;;;;;;;2.70;2.50;;;22.00;84.40;;;;;;6184042;28;88198;-64
2022/06/01 14:29:37;;;;;;;3.05;2.75;;;22.00;84.50;;;;;;6182283;28;87163;-65
2022/06/01 14:32:43;;;;;;;2.97;2.40;;;22.00;84.50;;;;;;6183385;28;89126;-65
2022/06/01 14:35:46;;;;;;;2.80;2.50;;;22.00;84.40;;;;;;6184230;28;89234;-65
2022/06/01 14:38:48;;;;;;;2.45;2.25;;;22.00;84.50;;;;;;6183033;28;89089;-65
2022/06/01 14:41:51;;;;;;;2.70;2.50;;;22.00;84.40;;;;;;6182330;28;88612;-65
2022/06/01 14:44:53;;;;;;;2.60;2.40;;;22.00;84.40;;;;;;6182456;28;89237;-64
2022/06/01 14:47:55;;;;;;;2.42;2.22;;;22.00;84.40;;;;;;6183023;28;89167;-65
2022/06/01 14:51:02;;;;;;;2.30;2.10;;;22.00;84.50;;;;;;6183185;28;90040;-65
2022/06/01 14:54:07;;;;;;;2.33;2.13;;;22.00;84.50;;;;;;6183249;28;88922;-65
2022/06/01 14:57:12;;;;;;;2.83;2.60;;;22.00;84.50;;;;;;6182025;28;89372;-65
2022/06/01 15:00:15;;;;;;;2.42;2.20;;;21.90;84.40;;;;;;6183408;28;89103;-65
2022/06/01 15:03:26;;;;;;;2.70;2.50;;;22.00;84.50;;;;;;6182738;28;87871;-65
2022/06/01 15:06:28;;;;;;;2.60;2.40;;;22.00;84.40;;;;;;6182357;28;89076;-65
2022/06/01 15:09:31;;;;;;;2.65;2.45;;;22.00;84.40;;;;;;6182610;28;89995;-65
2022/06/01 15:12:35;;;;;;;2.70;2.50;;;22.00;84.40;;;;;;6182247;28;87248;-64
2022/06/01 15:15:37;;;;;;;2.70;2.50;;;22.00;84.30;;;;;;6182287;28;88204;-64
2022/06/01 15:18:44;;;;;;;2.60;2.40;;;22.00;84.20;;;;;;6182398;28;89549;-64
2022/06/01 15:21:49;;;;;;;2.53;2.33;;;22.00;84.30;;;;;;6181615;28;90107;-64
2022/06/01 15:24:52;;;;;;;2.63;2.42;;;22.00;84.20;;;;;;6182790;28;89151;-64
2022/06/01 15:27:56;;;;;;;2.45;2.25;;;22.00;84.20;;;;;;6183120;28;89098;-64
2022/06/01 15:40:57;;;;;;;2.50;2.30;;;22.10;84.20;;;;;;6182325;28;88126;-65
2022/06/01 15:44:01;;;;;;;2.40;2.20;;;22.00;84.20;;;;;;6193169;28;87494;-64
2022/06/01 15:47:06;;;;;;;2.53;2.33;;;22.10;84.20;;;;;;6182157;28;89537;-64
2022/06/01 15:50:10;;;;;;;2.53;2.33;;;22.10;84.20;;;;;;6181323;28;89075;-64
2022/06/01 15:53:12;;;;;;;2.25;2.05;;;22.10;84.20;;;;;;6180146;28;90055;-64
2022/06/01 15:56:15;;;;;;;2.45;2.25;;;22.10;84.20;;;;;;6180872;28;89093;-64
2022/06/01 15:59:19;;;;;;;2.58;2.38;;;22.10;84.20;;;;;;6181987;28;89255;-65
2022/06/01 16:02:23;;;;;;;2.70;2.50;;;22.10;84.20;;;;;;6181211;28;89049;-65
2022/06/01 16:05:25;;;;;;;2.58;2.38;;;22.10;84.20;;;;;;6180702;28;90383;-65
2022/06/01 16:08:27;;;;;;;2.60;2.40;;;22.00;84.20;;;;;;6179541;28;88288;-65
2022/06/01 16:11:29;;;;;;;2.33;2.13;;;22.00;84.20;;;;;;6182126;28;89002;-64
2022/06/01 16:14:33;;;;;;;2.63;2.42;;;22.00;84.20;;;;;;6173922;28;88318;-65
2022/06/01 16:17:39;;;;;;;2.58;2.38;;;22.00;84.20;;;;;;6178309;28;89117;-65
2022/06/01 16:20:41;;;;;;;2.47;2.05;;;22.00;84.20;;;;;;6181357;28;89008;-65
2022/06/01 16:23:43;;;;;;;2.53;2.33;;;22.00;84.30;;;;;;6181161;28;90327;-65
2022/06/01 16:26:45;;;;;;;2.40;2.20;;;22.00;84.40;;;;;;6180348;28;89068;-65
2022/06/01 16:29:50;;;;;;;2.35;2.15;;;22.00;84.40;;;;;;6169894;28;88927;-64
2022/06/01 16:32:52;;;;;;;2.88;2.53;;;22.00;84.40;;;;;;6181709;28;89364;-65
2022/06/01 16:35:54;;;;;;;2.30;2.10;;;22.00;84.40;;;;;;6182041;28;89016;-64
2022/06/01 16:38:58;;;;;;;2.47;2.28;;;22.00;84.50;;;;;;6181402;28;89446;-64
2022/06/01 16:42:00;;;;;;;2.30;2.10;;;22.00;84.40;;;;;;6180111;28;89251;-65
2022/06/01 16:45:06;;;;;;;2.30;2.10;;;22.00;84.40;;;;;;6181491;28;88911;-64
2022/06/01 16:48:09;;;;;;;2.28;2.08;;;22.00;84.40;;;;;;6180778;28;89232;-64
2022/06/01 16:51:11;;;;;;;2.30;2.10;;;22.00;84.50;;;;;;6180851;28;88985;-64
2022/06/01 16:54:16;;;;;;;3.35;2.72;;;22.00;84.50;;;;;;6179735;28;90530;-64
2022/06/01 16:57:18;;;;;;;2.40;2.20;;;22.00;84.50;;;;;;6180672;28;89136;-64
2022/06/01 17:00:22;;;;;;;2.25;2.13;;;22.00;84.40;;;;;;6180621;28;87981;-65